Hauptseite
METAR-TAF:

METAR-TAF

Flughäfen :

Nancy, Frankreich

Militärflugplatz Nancy-Ochey

Breite: 48-35N, Länge: 005-58E, Höhe: 336 m

Beobachtung

Neuester Wetterbericht von vor 28 Minuten, um 11:30 UTC
Wind 2 kt aus unterschiedlichen Richtungen
Temperatur 20°C
Luftfeuchtigkeit 53%
Luftdruck 1024 hPa
Sichtweite 10 km oder mehr
Leicht bewölkt in der Höhe von 4400 ft
Durchbrochene Bewölkung in der Höhe von 6600 ft
Geschlossene Wolkendecke in der Höhe von 8800 ft

METAR: LFSO 211130Z AUTO VRB02KT 9999 FEW044 BKN066 OVC088 20/10 Q1024 NOSIG

Zeit: 13:58 (11:58 UTC)

Prognose

Neuester Wetterbericht von vor 3 Stunden und 58 Minuten, um 08:00 UTC
Gültige Prognose vom 21 um 09 UTC bis 22 um 09 UTC
Wind 3 kt aus Nordost
Sichtweite 10 km oder mehr
keine Wolken unter 1500 m und keine Kumulonimbus oder Gewitterwolken

TAF: LFSO 210800Z 2109/2209 04003KT CAVOK

Wetterbeobachtungen und Prognosen von mehr als 4000 Flughäfen (METAR und TAF Bericht).

Die verfügbaren Stationen werden durch gelbe und rote Markierungen auf der Karte dargestellt.

Führen Sie die Maus auf sie, um den Namen der Station zu sehen.

Darauf klicken, um die Beobachtung von Wetterbeobachtungen und Prognosen zu sehen.

Um die Karte zu ändern : klicken Sie auf den grünen Tasten mit einem schwarzen Kreuz Zum Vergrößern, auf den grünen Button mit einem Gedankenstrich zu verkleinern, oder auf die grünen Pfeile für benachbarte Karten.


METAR-TAF: